Time;durP1;ratioP1;P1;durP2;ratioP2;P2;SDS_P1;SDS_P2;PMS_P1;PMS_P2;Temp;Humidity;BMP_temperature;BMP_pressure;BME280_temperature;BME280_humidity;BME280_pressure;Samples;Min_cycle;Max_cycle;Signal;HPM_P1;HPM_P2
2022/01/29 00:00:37;;;;;;;16.27;9.93;;;;;;;4.39;100.00;101124.97;4902751;29;20715;-77
2022/01/29 00:03:04;;;;;;;15.27;9.50;;;;;;;4.50;100.00;101122.22;4899148;29;20198;-78
2022/01/29 00:05:31;;;;;;;16.90;9.70;;;;;;;4.64;100.00;101116.75;4898481;29;20229;-77
2022/01/29 00:07:59;;;;;;;14.23;8.82;;;;;;;4.62;100.00;101118.53;4913974;29;20212;-78
2022/01/29 00:10:25;;;;;;;13.13;7.93;;;;;;;4.72;100.00;101119.31;4915572;29;20230;-76
2022/01/29 00:12:52;;;;;;;14.18;9.60;;;;;;;4.80;100.00;101106.81;4917284;29;20186;-76
2022/01/29 00:15:20;;;;;;;14.57;9.18;;;;;;;4.79;100.00;101105.91;4917585;29;20210;-76
2022/01/29 00:17:47;;;;;;;18.10;10.15;;;;;;;4.62;100.00;101105.19;4913231;29;20226;-77
2022/01/29 00:20:13;;;;;;;17.83;10.43;;;;;;;4.73;100.00;101092.63;4936198;29;20288;-78
2022/01/29 00:22:40;;;;;;;19.23;9.73;;;;;;;4.85;100.00;101094.28;4936194;29;20283;-78
2022/01/29 00:25:09;;;;;;;16.38;8.93;;;;;;;4.73;100.00;101089.97;4920697;29;20267;-77
2022/01/29 00:27:36;;;;;;;18.58;10.48;;;;;;;4.58;100.00;101090.97;4917527;29;20190;-77
2022/01/29 00:30:08;;;;;;;16.80;10.00;;;;;;;4.44;100.00;101082.25;4918143;29;20585;-77
2022/01/29 00:32:35;;;;;;;15.93;8.93;;;;;;;4.63;100.00;101080.28;4917452;29;20201;-78
2022/01/29 00:35:04;;;;;;;22.40;10.50;;;;;;;4.63;100.00;101072.25;4917031;29;20291;-77
2022/01/29 00:37:31;;;;;;;18.42;10.85;;;;;;;4.64;100.00;101055.38;4921925;29;20212;-77
2022/01/29 00:39:58;;;;;;;17.60;9.85;;;;;;;4.63;100.00;101058.03;4916889;29;20197;-76
2022/01/29 00:42:26;;;;;;;18.60;12.15;;;;;;;4.50;100.00;101059.94;4917001;29;20290;-76
2022/01/29 00:44:53;;;;;;;19.42;9.82;;;;;;;4.56;100.00;101057.22;4916922;29;20301;-76
2022/01/29 00:47:20;;;;;;;25.63;10.50;;;;;;;4.43;100.00;101053.78;4915949;29;20206;-76
2022/01/29 00:49:47;;;;;;;19.40;10.75;;;;;;;4.68;100.00;101050.88;4916288;29;20206;-77
2022/01/29 00:52:13;;;;;;;17.70;11.60;;;;;;;4.71;100.00;101053.53;4917189;29;20624;-76
2022/01/29 00:54:40;;;;;;;21.38;10.18;;;;;;;4.74;100.00;101048.13;4916878;29;20627;-76
2022/01/29 00:57:07;;;;;;;19.95;11.20;;;;;;;4.78;100.00;101045.41;4916266;29;20289;-76
2022/01/29 00:59:35;;;;;;;18.45;10.05;;;;;;;4.79;100.00;101052.53;4916841;29;20374;-76
2022/01/29 01:02:02;;;;;;;17.05;9.75;;;;;;;4.95;100.00;101036.31;4916747;29;20202;-77
2022/01/29 01:04:29;;;;;;;20.65;11.07;;;;;;;4.93;100.00;101030.13;4916494;29;20328;-76
2022/01/29 01:06:56;;;;;;;22.17;12.27;;;;;;;4.70;100.00;101043.72;4916439;29;20213;-76
2022/01/29 01:09:22;;;;;;;25.10;14.73;;;;;;;4.64;100.00;101038.50;4917096;29;20565;-77
2022/01/29 01:11:49;;;;;;;22.50;11.45;;;;;;;4.59;100.00;101035.88;4918655;29;20288;-75
2022/01/29 01:14:15;;;;;;;24.25;12.25;;;;;;;4.48;100.00;101041.31;4902138;29;20292;-76
2022/01/29 01:16:43;;;;;;;116.40;59.20;;;;;;;4.37;100.00;101038.75;4911513;29;20193;-76
2022/01/29 01:19:10;;;;;;;21.10;11.65;;;;;;;4.43;100.00;101042.22;4920321;29;20179;-76
2022/01/29 01:21:37;;;;;;;22.27;11.93;;;;;;;4.42;100.00;101035.16;4920553;29;20205;-76
2022/01/29 01:24:04;;;;;;;15.70;10.23;;;;;;;4.21;100.00;101030.91;4919879;29;20228;-77
2022/01/29 01:26:30;;;;;;;20.35;11.20;;;;;;;4.34;100.00;101032.53;4920496;29;20202;-76
2022/01/29 01:28:57;;;;;;;28.73;15.82;;;;;;;4.29;100.00;101023.69;4920174;29;20204;-75
2022/01/29 01:31:24;;;;;;;28.42;13.85;;;;;;;4.32;100.00;101029.91;4920227;29;20205;-75
2022/01/29 01:33:52;;;;;;;27.27;13.50;;;;;;;4.36;100.00;101033.41;4917550;29;20629;-77
2022/01/29 01:36:23;;;;;;;20.20;10.77;;;;;;;4.38;100.00;101023.63;4911654;29;20240;-77
2022/01/29 01:38:53;;;;;;;26.05;12.18;;;;;;;4.34;100.00;101019.19;4913275;29;20237;-77
2022/01/29 01:41:24;;;;;;;19.50;10.40;;;;;;;4.36;100.00;101015.66;4915158;29;20596;-77
2022/01/29 01:43:50;;;;;;;19.23;10.82;;;;;;;4.44;100.00;101020.03;4938394;29;20621;-78
2022/01/29 01:46:17;;;;;;;25.40;11.48;;;;;;;4.34;100.00;101020.13;4926367;29;20201;-77
2022/01/29 01:48:44;;;;;;;23.15;11.35;;;;;;;4.29;100.00;101024.59;4938713;29;20204;-77
2022/01/29 01:51:14;;;;;;;21.45;10.63;;;;;;;4.37;100.00;101024.53;4939134;29;20203;-77
2022/01/29 01:53:41;;;;;;;23.20;11.50;;;;;;;4.35;100.00;101018.31;4938846;29;20609;-77
2022/01/29 01:56:07;;;;;;;20.77;10.48;;;;;;;4.28;100.00;101004.16;4922066;29;20211;-77
2022/01/29 01:58:34;;;;;;;19.58;11.40;;;;;;;4.39;100.00;101014.72;4926546;29;20816;-77
2022/01/29 02:01:01;;;;;;;24.63;10.40;;;;;;;4.35;100.00;101005.88;4938890;29;20199;-77
2022/01/29 02:03:27;;;;;;;23.00;11.80;;;;;;;4.41;100.00;101006.69;4938649;29;20633;-77
2022/01/29 02:05:54;;;;;;;24.67;12.45;;;;;;;4.40;100.00;101005.81;4923565;29;20206;-77
2022/01/29 02:08:22;;;;;;;18.20;10.85;;;;;;;4.48;100.00;101008.41;4919497;29;20291;-77
2022/01/29 02:10:50;;;;;;;24.30;11.63;;;;;;;4.45;100.00;101003.97;4919663;29;20296;-76
2022/01/29 02:13:16;;;;;;;22.52;11.50;;;;;;;4.48;100.00;101011.09;4917260;29;20559;-76
2022/01/29 02:15:43;;;;;;;22.48;11.85;;;;;;;4.42;100.00;101004.03;4919731;29;20279;-76
2022/01/29 02:18:13;;;;;;;23.60;10.75;;;;;;;4.43;100.00;101005.78;4919434;29;20202;-76
2022/01/29 02:20:41;;;;;;;22.13;11.02;;;;;;;4.50;100.00;101003.94;4919729;29;20281;-77
2022/01/29 02:23:09;;;;;;;24.15;10.95;;;;;;;4.45;100.00;100998.63;4918099;29;20203;-76
2022/01/29 02:25:38;;;;;;;17.05;9.70;;;;;;;4.36;100.00;100999.66;4918746;29;20232;-76
2022/01/29 02:28:07;;;;;;;25.35;12.27;;;;;;;4.33;100.00;100999.66;4919538;29;20190;-76
2022/01/29 02:30:35;;;;;;;21.00;11.32;;;;;;;4.29;100.00;100986.38;4919089;29;20198;-76
2022/01/29 02:33:06;;;;;;;19.38;10.68;;;;;;;4.30;100.00;100983.69;4918928;29;20201;-76
2022/01/29 02:35:33;;;;;;;17.58;10.52;;;;;;;4.43;100.00;100978.22;4929239;29;20318;-76
2022/01/29 02:38:00;;;;;;;19.15;10.82;;;;;;;4.44;100.00;100978.22;4931606;29;20201;-76
2022/01/29 02:40:29;;;;;;;21.83;11.70;;;;;;;4.54;100.00;100961.19;4919166;29;20598;-77
2022/01/29 02:42:56;;;;;;;22.73;10.80;;;;;;;4.55;100.00;100954.97;4918827;29;20190;-76
2022/01/29 02:45:26;;;;;;;16.27;9.60;;;;;;;4.61;100.00;100948.66;4908887;29;20229;-76
2022/01/29 02:47:52;;;;;;;20.77;11.07;;;;;;;4.50;100.00;100942.56;4911484;29;20222;-76
2022/01/29 02:50:19;;;;;;;19.45;10.40;;;;;;;4.58;100.00;100932.72;4915677;29;20632;-77
2022/01/29 02:52:45;;;;;;;16.55;10.15;;;;;;;4.75;100.00;100933.38;4908146;29;20291;-76
2022/01/29 02:55:12;;;;;;;17.73;9.50;;;;;;;4.76;100.00;100927.13;4910078;29;20636;-76
2022/01/29 02:57:40;;;;;;;19.52;10.05;;;;;;;4.72;100.00;100922.72;4906370;29;20749;-76
2022/01/29 03:00:10;;;;;;;14.02;9.68;;;;;;;4.50;100.00;100926.56;4907332;29;20294;-76
2022/01/29 03:02:38;;;;;;;16.20;9.88;;;;;;;4.58;100.00;100922.91;4904232;29;20196;-76
2022/01/29 03:05:05;;;;;;;16.48;9.52;;;;;;;4.64;100.00;100929.09;4910284;29;20228;-76
2022/01/29 03:07:32;;;;;;;14.27;8.57;;;;;;;4.58;100.00;100922.91;4912156;29;20219;-76
2022/01/29 03:09:58;;;;;;;13.07;8.48;;;;;;;4.55;100.00;100920.28;4910721;29;20205;-76
2022/01/29 03:12:25;;;;;;;17.70;8.98;;;;;;;4.55;100.00;100919.41;4907217;29;20198;-76
2022/01/29 03:14:53;;;;;;;12.05;7.88;;;;;;;4.49;100.00;100915.03;4907255;29;20543;-77
2022/01/29 03:17:20;;;;;;;13.05;7.78;;;;;;;4.59;100.00;100907.81;4913485;29;20213;-76
2022/01/29 03:19:46;;;;;;;14.70;9.95;;;;;;;4.67;100.00;100908.56;4907059;29;20203;-76
2022/01/29 03:22:13;;;;;;;13.45;8.90;;;;;;;4.80;100.00;100907.50;4907952;29;20279;-76
2022/01/29 03:24:39;;;;;;;14.93;8.32;;;;;;;4.84;100.00;100895.03;4906877;29;20231;-76
2022/01/29 03:27:06;;;;;;;11.35;7.40;;;;;;;4.94;100.00;100901.97;4906934;29;20207;-76
2022/01/29 03:29:32;;;;;;;10.60;7.13;;;;;;;5.03;100.00;100894.75;4903606;29;20232;-76
2022/01/29 03:32:00;;;;;;;12.52;8.60;;;;;;;4.90;100.00;100896.72;4909367;29;20202;-76
2022/01/29 03:34:27;;;;;;;11.27;7.80;;;;;;;5.00;100.00;100893.88;4906304;29;20253;-76
2022/01/29 03:36:56;;;;;;;14.25;7.80;;;;;;;4.63;100.00;100903.31;4912697;29;20643;-76
2022/01/29 03:39:25;;;;;;;15.77;8.18;;;;;;;4.70;100.00;100887.19;4909782;29;20540;-76
2022/01/29 03:41:52;;;;;;;15.85;8.52;;;;;;;4.79;100.00;100889.75;4929969;29;20209;-76
2022/01/29 03:44:20;;;;;;;14.73;9.38;;;;;;;4.73;100.00;100897.84;4924406;29;20196;-76
2022/01/29 03:46:47;;;;;;;14.23;7.90;;;;;;;4.77;100.00;100891.56;4929313;29;20206;-76
2022/01/29 03:49:15;;;;;;;16.15;9.00;;;;;;;4.73;100.00;100883.63;4909755;29;20201;-76
2022/01/29 03:51:42;;;;;;;16.38;9.30;;;;;;;4.72;100.00;100892.50;4903171;29;20225;-76
2022/01/29 03:54:08;;;;;;;15.82;9.40;;;;;;;4.92;100.00;100882.44;4912876;29;20199;-76
2022/01/29 03:56:35;;;;;;;17.52;9.55;;;;;;;4.82;100.00;100880.81;4909812;29;20201;-77
2022/01/29 03:59:01;;;;;;;21.92;10.10;;;;;;;4.83;100.00;100874.56;4909504;29;20289;-76
2022/01/29 04:01:28;;;;;;;14.93;9.40;;;;;;;4.88;100.00;100866.47;4915489;29;20309;-76
2022/01/29 04:03:55;;;;;;;15.25;9.40;;;;;;;4.66;100.00;100874.81;4908587;29;20207;-77
2022/01/29 04:06:23;;;;;;;17.98;10.60;;;;;;;4.75;100.00;100861.34;4905931;29;20214;-77
2022/01/29 04:08:49;;;;;;;15.65;9.50;;;;;;;4.65;100.00;100850.81;4907255;29;20198;-77
2022/01/29 04:11:16;;;;;;;17.05;10.00;;;;;;;4.43;100.00;100850.19;4909725;29;20206;-77
2022/01/29 04:13:47;;;;;;;14.52;9.45;;;;;;;4.44;100.00;100847.53;4909446;29;20655;-76
2022/01/29 04:16:15;;;;;;;17.65;9.77;;;;;;;4.17;100.00;100856.75;4906263;29;20191;-76
2022/01/29 04:18:42;;;;;;;19.25;10.63;;;;;;;4.34;100.00;100864.53;4905686;29;20206;-76
2022/01/29 04:21:09;;;;;;;17.08;10.45;;;;;;;4.32;100.00;100847.66;4910997;29;20203;-76
2022/01/29 04:23:37;;;;;;;20.23;11.65;;;;;;;4.48;100.00;100843.91;4914298;29;20216;-76
2022/01/29 04:26:05;;;;;;;17.08;10.60;;;;;;;4.42;100.00;100844.00;4905709;29;20213;-77
2022/01/29 04:28:37;;;;;;;15.75;10.30;;;;;;;4.40;100.00;100845.78;4905847;29;20237;-77
2022/01/29 04:31:08;;;;;;;22.17;12.07;;;;;;;4.14;100.00;100848.81;4915048;29;20190;-77
2022/01/29 04:33:35;;;;;;;20.25;11.05;;;;;;;4.39;100.00;100842.25;4907078;29;20224;-76
2022/01/29 04:36:03;;;;;;;20.75;11.73;;;;;;;4.43;100.00;100834.19;4898301;29;20251;-76
2022/01/29 04:38:31;;;;;;;18.50;11.00;;;;;;;4.42;100.00;100835.13;4906051;29;20567;-76
2022/01/29 04:41:03;;;;;;;20.05;11.27;;;;;;;4.50;100.00;100831.44;4909236;29;20660;-76
2022/01/29 04:43:30;;;;;;;17.95;11.27;;;;;;;4.36;100.00;100828.06;4909296;29;20292;-76
2022/01/29 04:45:57;;;;;;;20.10;11.80;;;;;;;4.33;100.00;100844.13;4905656;29;20294;-77
2022/01/29 04:48:24;;;;;;;19.10;11.73;;;;;;;4.32;100.00;100848.56;4909843;29;20204;-77
2022/01/29 04:50:50;;;;;;;17.52;10.55;;;;;;;4.26;100.00;100848.63;4906450;29;20204;-77
2022/01/29 04:53:17;;;;;;;27.17;12.77;;;;;;;4.39;100.00;100850.25;4915009;29;20205;-76
2022/01/29 04:55:44;;;;;;;24.67;11.90;;;;;;;4.35;100.00;100845.84;4907009;29;20720;-77
2022/01/29 04:58:12;;;;;;;22.15;11.52;;;;;;;4.23;100.00;100858.44;4905690;29;20641;-77
2022/01/29 05:00:39;;;;;;;20.63;11.45;;;;;;;4.28;100.00;100856.63;4905406;29;20562;-76
2022/01/29 05:03:10;;;;;;;21.05;12.38;;;;;;;4.38;100.00;100840.47;4905481;29;20655;-76
2022/01/29 05:05:37;;;;;;;21.08;11.48;;;;;;;4.41;100.00;100836.91;4909824;29;20212;-76
2022/01/29 05:08:04;;;;;;;20.55;12.60;;;;;;;4.39;100.00;100850.25;4909863;29;20210;-76
2022/01/29 05:10:32;;;;;;;19.60;11.23;;;;;;;4.44;100.00;100838.66;4908523;29;20283;-76
2022/01/29 05:13:02;;;;;;;21.00;11.40;;;;;;;4.27;100.00;100838.84;4904758;29;20281;-76
2022/01/29 05:15:38;;;;;;;21.98;11.20;;;;;;;4.17;100.00;100843.41;4908398;29;20200;-76
2022/01/29 05:29:12;;;;;;;21.52;12.18;;;;;;;4.29;100.00;100843.25;4908289;29;20232;-76
2022/01/29 05:31:40;;;;;;;21.65;11.90;;;;;;;4.36;100.00;100834.31;4899860;29;20611;-76
2022/01/29 05:34:07;;;;;;;22.73;12.57;;;;;;;4.55;100.00;100847.38;4898519;29;20249;-76
2022/01/29 05:36:34;;;;;;;21.05;11.68;;;;;;;4.35;100.00;100837.84;4907956;29;20228;-76
2022/01/29 05:39:00;;;;;;;22.92;12.38;;;;;;;4.43;100.00;100835.06;4907468;29;20541;-76
2022/01/29 05:41:28;;;;;;;20.15;12.25;;;;;;;4.46;100.00;100831.50;4905283;29;20286;-76
2022/01/29 05:43:55;;;;;;;22.88;12.85;;;;;;;4.35;100.00;100834.31;4911197;29;20203;-76
2022/01/29 05:46:21;;;;;;;21.45;12.32;;;;;;;4.42;100.00;100837.78;4904709;29;20309;-76
2022/01/29 05:48:49;;;;;;;21.08;12.20;;;;;;;4.18;100.00;100827.41;4904711;29;20209;-76
2022/01/29 05:51:16;;;;;;;21.70;11.63;;;;;;;4.31;100.00;100820.13;4905655;29;20209;-76
2022/01/29 05:53:43;;;;;;;22.35;12.35;;;;;;;4.26;100.00;100827.31;4911068;29;20195;-76
2022/01/29 05:56:09;;;;;;;20.75;12.23;;;;;;;4.36;100.00;100822.72;4911567;29;20621;-76
2022/01/29 05:58:36;;;;;;;25.58;13.32;;;;;;;4.47;100.00;100822.59;4903120;29;20199;-77
2022/01/29 06:01:03;;;;;;;23.13;11.88;;;;;;;4.44;100.00;100818.19;4908987;29;20201;-76
2022/01/29 06:03:30;;;;;;;24.23;12.10;;;;;;;4.33;100.00;100823.66;4908744;29;20294;-77
2022/01/29 06:05:57;;;;;;;23.60;12.88;;;;;;;4.38;100.00;100826.25;4907781;29;20700;-77
2022/01/29 06:08:24;;;;;;;24.08;13.45;;;;;;;4.25;100.00;100830.88;4916831;29;20201;-77
2022/01/29 06:10:51;;;;;;;26.15;13.00;;;;;;;4.21;100.00;100833.63;4907970;29;20197;-77
2022/01/29 06:13:17;;;;;;;20.75;12.85;;;;;;;4.41;100.00;100828.00;4915885;29;20292;-76
2022/01/29 06:15:46;;;;;;;22.98;13.25;;;;;;;4.53;100.00;100834.06;4906058;29;20192;-77
2022/01/29 06:18:17;;;;;;;23.17;13.13;;;;;;;4.51;100.00;100833.19;4907466;29;20232;-77
2022/01/29 06:20:46;;;;;;;24.20;13.75;;;;;;;4.51;100.00;100830.53;4903095;29;20287;-77
2022/01/29 06:23:15;;;;;;;26.30;14.38;;;;;;;4.30;100.00;100831.69;4913777;29;20285;-76
2022/01/29 06:25:43;;;;;;;23.33;12.55;;;;;;;4.22;100.00;100846.91;4904763;29;20207;-77
2022/01/29 06:28:09;;;;;;;25.00;13.55;;;;;;;4.17;100.00;100833.63;4908245;29;20551;-77
2022/01/29 06:30:36;;;;;;;23.02;13.63;;;;;;;4.23;100.00;100843.34;4907332;29;20613;-77
2022/01/29 06:33:09;;;;;;;26.85;14.50;;;;;;;4.35;100.00;100835.19;4907959;29;20219;-77
2022/01/29 06:35:36;;;;;;;26.63;15.57;;;;;;;4.36;100.00;100826.31;4900833;29;20230;-77
2022/01/29 06:38:03;;;;;;;27.30;14.90;;;;;;;4.31;100.00;100820.13;4932176;29;20198;-76
2022/01/29 06:40:31;;;;;;;29.45;14.73;;;;;;;4.33;100.00;100828.09;4930359;29;20197;-77
2022/01/29 06:42:58;;;;;;;23.40;13.75;;;;;;;4.37;100.00;100820.06;4907081;29;20736;-77
2022/01/29 06:45:25;;;;;;;24.83;15.02;;;;;;;4.31;100.00;100825.44;4903317;29;20196;-77
2022/01/29 06:47:51;;;;;;;26.48;13.90;;;;;;;4.12;100.00;100830.16;4910736;29;20204;-77
2022/01/29 06:50:18;;;;;;;25.40;14.40;;;;;;;4.13;100.00;100833.69;4910605;29;20202;-78
2022/01/29 06:52:45;;;;;;;25.98;15.20;;;;;;;4.41;100.00;100838.66;4905968;29;20700;-77
2022/01/29 06:55:11;;;;;;;26.80;14.35;;;;;;;4.39;100.00;100844.03;4907212;29;20209;-78
2022/01/29 06:57:39;;;;;;;25.77;14.98;;;;;;;4.27;100.00;100847.72;4915059;29;20217;-78
2022/01/29 07:00:08;;;;;;;25.33;13.52;;;;;;;4.55;100.00;100847.38;4912065;29;20525;-77
2022/01/29 07:02:34;;;;;;;22.10;13.05;;;;;;;4.45;100.00;100840.41;4912987;29;20213;-77
2022/01/29 07:05:01;;;;;;;25.20;12.95;;;;;;;4.63;100.00;100845.47;4912293;29;20289;-77
2022/01/29 07:07:28;;;;;;;24.27;13.50;;;;;;;4.64;100.00;100841.06;4909466;29;20241;-77
2022/01/29 07:09:54;;;;;;;25.60;13.70;;;;;;;4.71;100.00;100835.59;4915876;29;20650;-78
2022/01/29 07:12:21;;;;;;;25.05;13.82;;;;;;;4.78;100.00;100839.94;4902455;29;20231;-78
2022/01/29 07:14:50;;;;;;;20.20;12.15;;;;;;;4.73;100.00;100833.78;4909090;29;20191;-75
2022/01/29 07:17:17;;;;;;;21.67;13.50;;;;;;;4.72;100.00;100832.00;4909927;29;20191;-77
2022/01/29 07:19:45;;;;;;;24.25;14.25;;;;;;;4.83;100.00;100834.53;4909885;29;20194;-76
2022/01/29 07:22:12;;;;;;;17.88;11.20;;;;;;;4.68;100.00;100834.75;4908003;29;20213;-77
2022/01/29 07:24:39;;;;;;;19.40;11.20;;;;;;;4.62;100.00;100835.72;4905029;29;20198;-76
2022/01/29 07:27:07;;;;;;;18.95;12.45;;;;;;;4.73;100.00;100836.47;4906987;29;20220;-78
2022/01/29 07:29:34;;;;;;;18.30;12.43;;;;;;;4.76;100.00;100838.19;4904837;29;20554;-77
2022/01/29 07:32:02;;;;;;;19.98;12.40;;;;;;;4.77;100.00;100823.94;4909393;29;20291;-77
2022/01/29 07:34:29;;;;;;;18.20;10.88;;;;;;;4.76;100.00;100827.53;4910879;29;20223;-77
2022/01/29 07:36:57;;;;;;;20.10;13.40;;;;;;;4.87;100.00;100817.56;4907696;29;20535;-77
2022/01/29 07:39:26;;;;;;;19.27;12.93;;;;;;;4.87;100.00;100825.56;4909349;29;20555;-78
2022/01/29 07:41:53;;;;;;;24.98;18.48;;;;;;;4.85;100.00;100827.38;4913859;29;20204;-77
2022/01/29 07:44:20;;;;;;;20.02;12.00;;;;;;;4.74;100.00;100819.53;4911912;29;20195;-77
2022/01/29 07:46:47;;;;;;;20.50;13.18;;;;;;;4.57;100.00;100818.91;4906813;29;20213;-77
2022/01/29 07:49:15;;;;;;;18.85;12.43;;;;;;;4.79;100.00;100824.78;4909141;29;20204;-76
2022/01/29 07:51:42;;;;;;;18.67;11.20;;;;;;;4.83;100.00;100820.31;4906994;29;20205;-77
2022/01/29 07:54:09;;;;;;;18.13;11.00;;;;;;;4.64;100.00;100820.59;4908059;29;20203;-77
2022/01/29 07:56:36;;;;;;;18.48;11.80;;;;;;;4.74;100.00;100821.31;4915287;29;20196;-77
2022/01/29 07:59:03;;;;;;;17.05;10.50;;;;;;;4.63;100.00;100820.59;4908485;29;20300;-77
2022/01/29 08:01:31;;;;;;;17.70;11.15;;;;;;;4.59;100.00;100814.44;4910044;29;20206;-77
2022/01/29 08:03:57;;;;;;;19.42;12.30;;;;;;;4.62;100.00;100811.72;4906078;29;20295;-79
2022/01/29 08:06:26;;;;;;;20.92;13.63;;;;;;;4.58;100.00;100812.66;4911275;29;20253;-76
2022/01/29 08:08:53;;;;;;;21.90;12.38;;;;;;;4.59;100.00;100819.78;4907524;29;20551;-76
2022/01/29 08:11:21;;;;;;;20.55;13.35;;;;;;;4.62;100.00;100810.84;4909014;29;20710;-78
2022/01/29 08:13:47;;;;;;;19.10;12.35;;;;;;;4.79;100.00;100811.44;4908612;29;20659;-78
2022/01/29 08:16:14;;;;;;;28.10;17.88;;;;;;;4.48;100.00;100813.72;4909319;29;20194;-78
2022/01/29 08:18:42;;;;;;;19.63;12.45;;;;;;;4.56;100.00;100814.47;4908853;29;20618;-79
2022/01/29 08:21:09;;;;;;;20.38;12.40;;;;;;;4.37;100.00;100809.38;4909488;29;20292;-77
2022/01/29 08:23:37;;;;;;;19.95;11.60;;;;;;;4.72;100.00;100812.44;4902724;29;20206;-77
2022/01/29 08:26:03;;;;;;;18.45;11.73;;;;;;;4.61;100.00;100823.28;4909318;29;20220;-78
2022/01/29 08:28:30;;;;;;;19.35;10.88;;;;;;;4.66;100.00;100804.53;4909235;29;20213;-78
2022/01/29 08:30:57;;;;;;;15.75;10.30;;;;;;;4.69;100.00;100809.84;4911554;29;20235;-77
2022/01/29 08:33:23;;;;;;;17.45;10.65;;;;;;;4.58;100.00;100802.84;4909165;29;20198;-78
2022/01/29 08:35:50;;;;;;;17.98;11.10;;;;;;;4.68;100.00;100808.06;4901450;29;20279;-78
2022/01/29 08:38:17;;;;;;;85.15;45.10;;;;;;;4.50;100.00;100798.53;4910014;29;20713;-78
2022/01/29 08:40:45;;;;;;;19.05;12.20;;;;;;;4.50;100.00;100803.88;4910039;29;20284;-77
2022/01/29 08:43:11;;;;;;;115.38;62.63;;;;;;;4.51;100.00;100814.53;4906562;29;20292;-77
2022/01/29 08:45:38;;;;;;;18.00;11.30;;;;;;;4.57;100.00;100806.44;4910759;29;20207;-77
2022/01/29 08:48:05;;;;;;;13.52;9.35;;;;;;;4.76;100.00;100798.16;4913084;29;20316;-77
2022/01/29 08:50:32;;;;;;;16.48;9.57;;;;;;;4.72;100.00;100799.97;4914458;29;20273;-78
2022/01/29 08:52:59;;;;;;;14.13;8.85;;;;;;;4.59;100.00;100799.31;4917096;29;20202;-78
2022/01/29 08:55:26;;;;;;;15.00;9.82;;;;;;;4.67;100.00;100803.66;4923099;29;20275;-77
2022/01/29 08:57:54;;;;;;;31.40;20.27;;;;;;;4.62;100.00;100800.16;4914619;29;20204;-79
2022/01/29 09:00:20;;;;;;;18.67;11.63;;;;;;;4.62;100.00;100802.84;4913625;29;20253;-77
2022/01/29 09:02:47;;;;;;;50.45;33.20;;;;;;;4.65;100.00;100805.44;4914639;29;20206;-77
2022/01/29 09:05:14;;;;;;;14.43;8.90;;;;;;;4.97;100.00;100802.28;4915758;29;20540;-77
2022/01/29 09:07:41;;;;;;;11.48;8.15;;;;;;;5.03;100.00;100802.19;4916942;29;20238;-75
2022/01/29 09:10:08;;;;;;;21.58;12.55;;;;;;;4.98;100.00;100794.25;4916127;29;20615;-76
2022/01/29 09:12:35;;;;;;;15.90;10.52;;;;;;;4.81;100.00;100789.16;4915947;29;20674;-74
2022/01/29 09:15:03;;;;;;;13.10;8.30;;;;;;;4.98;100.00;100796.06;4916310;29;20300;-84
2022/01/29 09:17:30;;;;;;;11.02;7.60;;;;;;;4.75;100.00;100793.75;4916726;29;20383;-81
2022/01/29 09:19:56;;;;;;;19.35;13.18;;;;;;;4.75;100.00;100786.63;4935673;29;20284;-79
2022/01/29 09:22:23;;;;;;;15.68;8.00;;;;;;;4.77;100.00;100787.47;4921215;29;20265;-81
2022/01/29 09:24:50;;;;;;;11.75;7.80;;;;;;;4.80;100.00;100782.09;4916229;29;20240;-80
2022/01/29 09:27:16;;;;;;;10.68;7.05;;;;;;;4.82;100.00;100779.41;4924186;29;20294;-80
2022/01/29 09:29:44;;;;;;;11.52;7.43;;;;;;;4.75;100.00;100773.28;4935281;29;20610;-79
2022/01/29 09:32:12;;;;;;;11.30;7.30;;;;;;;4.86;100.00;100777.53;4938585;29;20219;-82
2022/01/29 09:34:38;;;;;;;15.10;7.47;;;;;;;5.14;100.00;100769.97;4923598;29;20226;-81
2022/01/29 09:37:05;;;;;;;11.90;6.97;;;;;;;5.13;100.00;100777.13;4921113;29;20252;-81
2022/01/29 09:39:31;;;;;;;11.10;6.10;;;;;;;5.11;100.00;100764.66;4922580;29;20196;-81
2022/01/29 09:41:59;;;;;;;9.98;5.90;;;;;;;5.26;100.00;100769.75;4920023;29;20206;-78
2022/01/29 09:44:26;;;;;;;11.52;7.60;;;;;;;5.14;100.00;100760.19;4919783;29;20248;-78
2022/01/29 09:46:53;;;;;;;10.15;6.78;;;;;;;5.30;100.00;100766.13;4920057;29;20293;-78
2022/01/29 09:49:21;;;;;;;9.63;6.70;;;;;;;5.31;100.00;100751.84;4918567;29;20568;-79
2022/01/29 09:51:48;;;;;;;9.70;6.07;;;;;;;5.30;100.00;100758.13;4918628;29;20217;-78
2022/01/29 09:54:14;;;;;;;8.98;5.82;;;;;;;5.25;100.00;100767.13;4919586;29;20220;-79
2022/01/29 09:56:41;;;;;;;10.25;6.55;;;;;;;5.40;100.00;100769.50;4918671;29;20661;-79
2022/01/29 09:59:08;;;;;;;7.07;5.03;;;;;;;5.30;100.00;100771.47;4919267;29;20423;-79
2022/01/29 10:01:34;;;;;;;18.67;11.85;;;;;;;5.27;100.00;100754.59;4919024;29;20209;-78
2022/01/29 10:04:02;;;;;;;8.57;5.65;;;;;;;5.30;100.00;100762.59;4919645;29;20221;-78
2022/01/29 10:06:31;;;;;;;7.80;5.75;;;;;;;5.44;100.00;100758.72;4917902;29;20591;-77
2022/01/29 10:08:59;;;;;;;11.82;7.88;;;;;;;5.24;100.00;100766.22;4919669;29;20213;-78
2022/01/29 10:11:27;;;;;;;6.57;4.88;;;;;;;5.38;100.00;100768.66;4919023;29;20237;-78
2022/01/29 10:13:59;;;;;;;8.60;5.97;;;;;;;5.17;100.00;100773.47;4919467;29;20648;-78
2022/01/29 10:16:28;;;;;;;7.18;4.97;;;;;;;5.29;100.00;100760.81;4918695;29;20564;-77
2022/01/29 10:19:02;;;;;;;8.55;5.47;;;;;;;5.35;100.00;100768.72;4919687;29;20200;-78
2022/01/29 10:21:32;;;;;;;7.70;4.85;;;;;;;5.43;100.00;100769.47;4919523;29;20287;-78
2022/01/29 10:24:05;;;;;;;9.55;6.05;;;;;;;5.44;100.00;100760.53;4908221;29;20225;-79
2022/01/29 10:26:34;;;;;;;7.00;4.85;;;;;;;5.33;100.00;100765.19;4911052;29;20703;-78
2022/01/29 10:29:01;;;;;;;10.05;5.28;;;;;;;5.19;100.00;100763.63;4914070;29;20504;-78
2022/01/29 10:31:40;;;;;;;10.75;5.97;;;;;;;5.32;100.00;100756.31;4908013;29;20286;-78
2022/01/29 10:34:15;;;;;;;10.00;6.35;;;;;;;5.35;100.00;100755.34;4910336;29;20193;-78
2022/01/29 10:36:43;;;;;;;9.30;6.03;;;;;;;5.45;100.00;100756.97;4910672;29;20595;-78
2022/01/29 10:39:10;;;;;;;8.30;5.90;;;;;;;5.55;100.00;100758.53;4914771;29;20209;-78
2022/01/29 10:41:37;;;;;;;7.60;5.00;;;;;;;5.47;100.00;100756.91;4913386;29;20221;-78
2022/01/29 10:44:11;;;;;;;7.85;5.07;;;;;;;5.36;100.00;100766.03;4909305;29;20218;-77
2022/01/29 10:46:49;;;;;;;9.10;6.00;;;;;;;5.59;100.00;100757.56;4912872;29;20322;-77
2022/01/29 10:49:22;;;;;;;7.97;5.93;;;;;;;5.56;100.00;100756.75;4908997;29;20637;-77
2022/01/29 10:51:58;;;;;;;7.90;6.20;;;;;;;5.73;100.00;100759.97;4915013;29;20576;-79
2022/01/29 10:54:26;;;;;;;7.65;5.80;;;;;;;5.54;100.00;100748.78;4904960;29;20200;-79
2022/01/29 10:57:01;;;;;;;7.93;5.43;;;;;;;5.76;100.00;100745.66;4909148;29;20209;-79
2022/01/29 10:59:30;;;;;;;8.48;5.70;;;;;;;5.80;100.00;100747.38;4903796;29;20226;-79
2022/01/29 11:02:00;;;;;;;6.72;5.13;;;;;;;5.81;100.00;100741.09;4933990;29;20205;-78
2022/01/29 11:04:29;;;;;;;7.97;5.28;;;;;;;5.95;100.00;100743.56;4931419;29;20198;-78
2022/01/29 11:07:02;;;;;;;8.00;5.93;;;;;;;5.96;100.00;100732.81;4918711;29;20625;-78
2022/01/29 11:09:30;;;;;;;11.50;6.93;;;;;;;6.16;100.00;100735.06;4919566;29;20206;-79
2022/01/29 11:11:58;;;;;;;9.90;5.65;;;;;;;5.98;100.00;100738.13;4918305;29;20281;-80
2022/01/29 11:14:26;;;;;;;7.55;5.32;;;;;;;5.98;100.00;100741.69;4918631;29;20206;-79
2022/01/29 11:16:53;;;;;;;8.70;6.05;;;;;;;5.87;100.00;100735.63;4925716;29;20640;-79
2022/01/29 11:19:20;;;;;;;8.05;5.78;;;;;;;5.98;100.00;100739.00;4937728;29;20291;-80
2022/01/29 11:21:49;;;;;;;13.40;9.57;;;;;;;6.10;100.00;100724.47;4918383;29;20285;-80
2022/01/29 11:24:20;;;;;;;8.00;5.40;;;;;;;5.91;100.00;100731.13;4918680;29;20247;-79